Flight Track Log - Related Links

Times and Time Zones

All times are in EDT time to prevent confusion due to time zone crossing. See the N201SU flight status page for this flight to view local times or setup timezone preferences in your user account.

Time Position Orientation Groundspeed Altitude Reporting Facility
EDT Latitude Longitude Course Direction KTS MPH feet Rate Location/Type
Fri 10:02:11 AM 38.7142 -104.6369 110° East 272 313 9,100  Level Denver Center
Fri 10:03:12 AM 38.6933 -104.5389 105° East 290 334 10,100 1,220 Climbing Denver Center
Fri 10:04:14 AM 38.6656 -104.4161 106° East 307 353 11,600 1,512 Climbing Denver Center
Fri 10:05:15 AM 38.6431 -104.3075 105° East 317 365 13,200 1,659 Climbing Denver Center
Fri 10:06:17 AM 38.6136 -104.1800 106° East 327 376 15,000 1,366 Climbing Denver Center
Fri 10:07:00 AM 38.5387 -103.8937 110° East  Level FlightAware Approximate
Fri 10:07:18 AM 38.5875 -104.0692 107° East 335 386 16,000  Level Denver Center
Fri 10:08:20 AM 38.5594 -103.9514 107° East 354 407 17,300 1,220 Climbing Denver Center
Fri 10:09:21 AM 38.5411 -103.8097 99° East 364 419 18,500 1,122 Climbing Denver Center
Fri 10:10:23 AM 38.5628 -103.6925 77° East 356 410 19,600 1,113 Climbing Denver Center
Fri 10:11:25 AM 38.5897 -103.5506 76° East 366 421 20,800 1,016 Climbing Denver Center
Fri 10:12:27 AM 38.6111 -103.4269 77° East 370 426 21,700 774 Climbing Denver Center
Fri 10:13:29 AM 38.6347 -103.3008 76° East 377 434 22,400 878 Climbing Denver Center
Fri 10:14:30 AM 38.6600 -103.1514 78° East 385 443 23,500 927 Climbing Denver Center
Fri 10:15:32 AM 38.6836 -103.0244 77° East 382 440 24,300 878 Climbing Denver Center
Fri 10:16:33 AM 38.7083 -102.8739 78° East 388 447 25,300 976 Climbing Denver Center
Fri 10:17:35 AM 38.7342 -102.7292 77° East 391 450 26,300 968 Climbing Denver Center
Fri 10:18:37 AM 38.7578 -102.5992 77° East 392 451 27,300 919 Climbing Denver Center
Fri 10:19:39 AM 38.7786 -102.4697 78° East 390 449 28,200 1,161 Climbing Denver Center
Fri 10:20:41 AM 38.8056 -102.3172 77° East 392 451 29,700 1,210 Climbing Denver Center
Fri 10:21:43 AM 38.8267 -102.1908 78° East 383 441 30,700 1,065 Climbing Denver Center
Fri 10:22:45 AM 38.8519 -102.0397 78° East 386 444 31,900 1,065 Climbing Denver Center
Fri 10:23:47 AM 38.8733 -101.9114 78° East 385 443 32,900 532 Climbing Denver Center
Fri 10:24:49 AM 38.8992 -101.7572 78° East 393 452 33,000 194 Climbing Denver Center
Fri 10:25:51 AM 38.9217 -101.6158 78° East 413 475 33,300 581 Climbing Denver Center
Fri 10:26:53 AM 38.9453 -101.4739 78° East 422 486 34,200 919 Climbing Denver Center
Fri 10:27:55 AM 38.9708 -101.3119 78° East 417 480 35,200 919 Climbing Denver Center
Fri 10:28:57 AM 38.9922 -101.1756 79° East 410 472 36,100 968 Climbing Denver Center
Fri 10:29:59 AM 39.0183 -101.0183 78° East 405 466 37,200 968 Climbing Denver Center
Fri 10:31:01 AM 39.0386 -100.8794 79° East 401 461 38,100 871 Climbing Denver Center
Fri 10:32:03 AM 39.0628 -100.7247 79° East 397 457 39,000 435 Climbing Denver Center
Fri 10:33:05 AM 39.0839 -100.5906 79° East 399 459 39,000  Level Denver Center
Fri 10:34:07 AM 39.1083 -100.4253 79° East 418 481 39,000  Level Denver Center
Fri 10:35:09 AM 39.1294 -100.2806 79° East 430 495 39,000  Level Denver Center
Fri 10:36:11 AM 39.1561 -100.1106 79° East 433 498 39,000  Level Denver Center
Fri 10:37:13 AM 39.1772 -99.9631 79° East 439 505 39,000  Level Denver Center
Fri 10:38:15 AM 39.2031 -99.7906 79° East 440 506 39,000  Level Denver Center
Fri 10:39:17 AM 39.2244 -99.6400 80° East 443 510 39,000  Level Denver Center
Fri 10:40:19 AM 39.2464 -99.4892 79° East 445 512 39,000  Level Denver Center
Fri 10:41:21 AM 39.2714 -99.3128 80° East 447 514 39,000  Level Denver Center
Fri 10:42:23 AM 39.2928 -99.1614 80° East 448 516 39,000  Level Denver Center
Fri 10:42:55 AM 39.3042 -99.0828 79° East 452 520 39,000  Level Kansas City Center
Fri 10:43:57 AM 39.3264 -98.9233 80° East 450 518 39,000  Level Kansas City Center
Fri 10:44:59 AM 39.3514 -98.7319 80° East 448 516 39,000  Level Kansas City Center
Fri 10:46:01 AM 39.3725 -98.5789 80° East 452 520 39,000  Level Kansas City Center
Fri 10:47:03 AM 39.3939 -98.4231 80° East 457 526 39,000  Level Kansas City Center
Fri 10:48:05 AM 39.4203 -98.2306 80° East 456 525 39,000  Level Kansas City Center
Fri 10:49:07 AM 39.4406 -98.0656 81° East 452 520 39,000  Level Kansas City Center
Fri 10:50:09 AM 39.4619 -97.9097 80° East 456 525 39,000  Level Kansas City Center
Fri 10:51:11 AM 39.4831 -97.7456 80° East 461 531 39,000  Level Kansas City Center
Fri 10:52:13 AM 39.5036 -97.5850 81° East 456 525 39,000  Level Kansas City Center
Fri 10:53:15 AM 39.5264 -97.3936 81° East 452 520 39,000  Level Kansas City Center
Fri 10:54:17 AM 39.5475 -97.2319 80° East 454 522 39,000  Level Kansas City Center
Fri 10:55:19 AM 39.5653 -97.0853 81° East 453 521 39,000  Level Kansas City Center
Fri 10:56:21 AM 39.5839 -96.9214 82° East 456 525 39,000  Level Kansas City Center
Fri 10:57:23 AM 39.6058 -96.7458 81° East 459 528 39,000  Level Kansas City Center
Fri 10:58:25 AM 39.6272 -96.5639 81° East 458 527 39,000  Level Kansas City Center
Fri 10:59:28 AM 39.6442 -96.4075 82° East 457 526 39,000  Level Kansas City Center
Fri 11:00:30 AM 39.6653 -96.2239 81° East 459 528 39,000  Level Kansas City Center
Fri 11:01:32 AM 39.6828 -96.0672 82° East 459 528 39,000 97 Level Kansas City Center
Fri 11:02:34 AM 39.7044 -95.8836 81° East 460 529 39,200 290 Climbing Kansas City Center
Fri 11:03:36 AM 39.7208 -95.7269 82° East 457 526 39,600 387 Climbing Kansas City Center
Fri 11:04:38 AM 39.7372 -95.5728 82° East 451 519 40,000 435 Climbing Kansas City Center
Fri 11:05:40 AM 39.7564 -95.3933 82° East 448 516 40,500 484 Climbing Kansas City Center
Fri 11:06:42 AM 39.7728 -95.2419 82° East 441 507 41,000 242 Climbing Kansas City Center
Fri 11:07:44 AM 39.7914 -95.0628 82° East 445 512 41,000  Level Kansas City Center
Fri 11:08:46 AM 39.8081 -94.9036 82° East 458 527 41,000  Level Kansas City Center
Fri 11:09:48 AM 39.8269 -94.7189 82° East 459 528 41,000  Level Kansas City Center
Fri 11:10:50 AM 39.8428 -94.5583 83° East 465 535 41,000  Level Kansas City Center
Fri 11:11:52 AM 39.8611 -94.3703 83° East 468 539 41,000  Level Kansas City Center
Fri 11:12:54 AM 39.8764 -94.2075 83° East 471 542 41,000  Level Kansas City Center
Fri 11:13:56 AM 39.8925 -94.0383 83° East 472 543 41,000  Level Kansas City Center
Fri 11:14:58 AM 39.9064 -93.8697 84° East 473 544 41,000  Level Kansas City Center
Fri 11:16:00 AM 39.9222 -93.7056 83° East 463 533 41,000  Level Kansas City Center
Fri 11:17:02 AM 39.9411 -93.5067 83° East 466 536 41,000  Level Kansas City Center
Fri 11:18:04 AM 39.9556 -93.3406 83° East 467 537 41,000  Level Kansas City Center
Fri 11:19:06 AM 39.9703 -93.1739 83° East 468 539 41,000  Level Kansas City Center
Fri 11:20:08 AM 39.9844 -93.0075 84° East 467 537 41,000  Level Kansas City Center
Fri 11:21:10 AM 39.9992 -92.8103 84° East 464 534 41,000  Level Kansas City Center
Fri 11:22:12 AM 40.0139 -92.6453 83° East 467 537 41,000  Level Kansas City Center
Fri 11:23:14 AM 40.0278 -92.4808 84° East 468 539 41,000  Level Kansas City Center
Fri 11:24:17 AM 40.0406 -92.3164 84° East 466 536 41,000  Level Kansas City Center
Fri 11:25:19 AM 40.0561 -92.1206 84° East 462 532 41,000  Level Kansas City Center
Fri 11:26:21 AM 40.0678 -91.9564 85° East 461 531 41,000  Level Kansas City Center
Fri 11:27:23 AM 40.0806 -91.7911 84° East 462 532 41,000  Level Kansas City Center
Fri 11:28:25 AM 40.0933 -91.6256 84° East 463 533 41,000  Level Kansas City Center
Fri 11:29:27 AM 40.1047 -91.4592 85° East 464 534 41,000  Level Kansas City Center
Fri 11:30:29 AM 40.1192 -91.2600 85° East 464 534 41,000  Level Kansas City Center
Fri 11:31:31 AM 40.1303 -91.0911 85° East 469 540 41,000  Level Kansas City Center
Fri 11:32:33 AM 40.1417 -90.9242 85° East 468 539 41,000  Level Kansas City Center
Fri 11:33:40 AM 40.1533 -90.7222 86° East 468 539 41,000  Level Chicago Center
Fri 11:34:37 AM 40.1650 -90.5867 84° East 468 539 41,000  Level Kansas City Center
Fri 11:35:39 AM 40.1781 -90.3844 85° East 468 539 41,000  Level Kansas City Center
Fri 11:36:41 AM 40.1878 -90.2136 86° East 471 542 41,000  Level Kansas City Center
Fri 11:37:43 AM 40.1972 -90.0431 86° East 473 544 41,000  Level Kansas City Center
Fri 11:38:45 AM 40.2078 -89.8742 85° East 472 543 41,000  Level Kansas City Center
Fri 11:39:47 AM 40.2172 -89.7042 86° East 472 543 41,000  Level Kansas City Center
Fri 11:41:18 AM 40.2322 -89.4181 86° East 473 544 41,000  Level Indianapolis Center
Fri 11:41:57 AM 40.2364 -89.3314 86° East 472 543 41,000  Level Chicago Center
Fri 11:42:59 AM 40.2456 -89.1594 86° East 475 547 41,000  Level Chicago Center
Fri 11:44:01 AM 40.2564 -88.9536 86° East 476 548 41,000  Level Chicago Center
Fri 11:45:03 AM 40.2656 -88.7833 86° East 473 544 41,000  Level Chicago Center
Fri 11:46:05 AM 40.2733 -88.6142 86° East 470 541 41,000  Level Chicago Center
Fri 11:47:07 AM 40.2819 -88.4342 86° East 475 547 41,000  Level Chicago Center
Fri 11:48:10 AM 40.2892 -88.2689 87° East 465 535 41,000  Level Chicago Center
Fri 11:49:12 AM 40.2958 -88.1003 87° East 467 537 41,000  Level Chicago Center
Fri 11:50:14 AM 40.3053 -87.8994 86° East 468 539 41,000  Level Chicago Center
Fri 11:51:16 AM 40.3119 -87.7350 87° East 462 532 41,000  Level Chicago Center
Fri 11:52:18 AM 40.3183 -87.5678 87° East 463 533 41,000  Level Chicago Center
Fri 11:53:20 AM 40.3247 -87.3822 87° East 464 534 41,000  Level Chicago Center
Fri 11:54:22 AM 40.3308 -87.2128 87° East 466 536 41,000  Level Chicago Center
Fri 11:55:24 AM 40.3361 -87.0442 88° East 464 534 41,000  Level Chicago Center
Fri 11:56:26 AM 40.3419 -86.8747 87° East 465 535 41,000  Level Chicago Center
Fri 11:57:28 AM 40.3478 -86.7053 87° East 464 534 41,000  Level Chicago Center
Fri 11:58:31 AM 40.3522 -86.5356 88° East 465 535 41,000  Level Chicago Center
Fri 11:59:33 AM 40.3581 -86.3303 88° East 468 539 41,000  Level Chicago Center
Fri 12:00:35 PM 40.3633 -86.1578 88° East 471 542 41,000  Level Chicago Center
Fri 12:01:37 PM 40.3658 -85.9853 89° East 472 543 41,000  Level Chicago Center
Fri 12:02:39 PM 40.3717 -85.8167 87° East 464 534 41,000  Level Chicago Center
Fri 12:03:41 PM 40.3750 -85.6311 89° East 469 540 41,000  Level Chicago Center
Fri 12:04:43 PM 40.3786 -85.4728 88° East 470 541 41,000  Level Chicago Center
Fri 12:05:45 PM 40.3817 -85.2669 89° East 471 542 41,000  Level Chicago Center
Fri 12:06:47 PM 40.3856 -85.0956 88° East 471 542 41,000  Level Chicago Center
Fri 12:07:49 PM 40.3878 -84.9231 89° East 472 543 41,000  Level Chicago Center
Fri 12:08:51 PM 40.3900 -84.7514 89° East 472 543 41,000  Level Chicago Center
Fri 12:09:53 PM 40.3917 -84.5678 89° East 480 552 41,000  Level Chicago Center
Fri 12:10:56 PM 40.3936 -84.3961 89° East 477 549 41,000  Level Chicago Center
Fri 12:12:13 PM 40.3956 -84.1614 89° East 471 542 41,000  Level Indianapolis Center
Fri 12:13:14 PM 40.3972 -83.9858 89° East 475 547 41,000  Level Indianapolis Center
Fri 12:14:16 PM 40.3978 -83.8100 90° East 475 547 41,000  Level Indianapolis Center
Fri 12:15:18 PM 40.3994 -83.6331 89° East 478 550 41,000  Level Indianapolis Center
Fri 12:16:20 PM 40.3986 -83.4556 90° East 479 551 41,000  Level Indianapolis Center
Fri 12:17:21 PM 40.3992 -83.2806 90° East 474 545 41,000  Level Indianapolis Center
Fri 12:18:23 PM 40.3994 -83.1067 90° East 471 542 41,000  Level Indianapolis Center
Fri 12:19:25 PM 40.3992 -82.9331 90° East 471 542 41,000  Level Indianapolis Center
Fri 12:20:27 PM 40.3981 -82.7544 90° East 464 534 41,000  Level Indianapolis Center
Fri 12:21:29 PM 40.3975 -82.5847 90° East 463 533 41,000  Level Indianapolis Center
Fri 12:22:31 PM 40.3967 -82.4181 90° East 458 527 41,000  Level Indianapolis Center
Fri 12:23:32 PM 40.3953 -82.2211 90° East 459 528 41,000  Level Indianapolis Center
Fri 12:24:34 PM 40.3939 -82.0528 91° East 459 528 41,000  Level Indianapolis Center
Fri 12:25:36 PM 40.3911 -81.8850 91° East 458 527 41,000  Level Indianapolis Center
Fri 12:26:38 PM 40.3897 -81.7169 91° East 459 528 41,000  Level Indianapolis Center
Fri 12:27:40 PM 40.3867 -81.5500 91° East 457 526 41,000  Level Indianapolis Center
Fri 12:28:42 PM 40.3842 -81.3828 91° East 456 525 41,000  Level Indianapolis Center
Fri 12:29:43 PM 40.3817 -81.2178 91° East 453 521 41,000  Level Indianapolis Center
Fri 12:30:45 PM 40.3811 -81.0272 90° East 454 522 41,000  Level Cleveland Center
Fri 12:31:44 PM 40.3775 -80.8639 92° East 454 522 41,000  Level Cleveland Center
Fri 12:32:45 PM 40.3736 -80.6947 92° East 459 528 41,000  Level Cleveland Center
Fri 12:33:45 PM 40.3694 -80.5286 92° East 454 522 41,000  Level Cleveland Center
Fri 12:34:45 PM 40.3672 -80.3650 91° East 454 522 41,000 -50 Level Cleveland Center
Fri 12:35:45 PM 40.3583 -80.2017 94° East 454 522 40,900 -550 Descending Cleveland Center
Fri 12:36:45 PM 40.3703 -80.0353 85° East 454 522 39,900 -1,000 Descending Cleveland Center
Fri 12:37:45 PM 40.4300 -79.8983 60° Northeast 469 540 38,900 -1,008 Descending Cleveland Center
Fri 12:38:44 PM 40.4769 -79.7450 68° East 458 527 37,900 -1,008 Descending Cleveland Center
Fri 12:39:44 PM 40.4650 -79.5678 95° East 458 527 36,900 -1,050 Descending Cleveland Center
Fri 12:40:44 PM 40.4467 -79.3853 97° East 478 550 35,800 -950 Descending Cleveland Center
Fri 12:41:44 PM 40.4217 -79.2031 100° East 497 572 35,000 -800 Descending Cleveland Center
Fri 12:42:44 PM 40.3861 -79.0322 105° East 497 572 34,200 -1,100 Descending Cleveland Center
Fri 12:43:44 PM 40.3792 -78.8469 93° East 502 578 32,800 -1,650 Descending Cleveland Center
Fri 12:44:44 PM 40.3742 -78.6700 92° East 502 578 30,900 -1,950 Descending Cleveland Center
Fri 12:45:44 PM 40.3647 -78.4875 94° East 496 571 28,900 -1,759 Descending Cleveland Center
Fri 12:47:38 PM 40.3522 -78.1444 93° East 483 556 25,800 -1,345 Descending New York Center
Fri 12:48:38 PM 40.3442 -77.9692 93° East 483 556 25,000 -508 Descending New York Center
Fri 12:49:36 PM 40.3358 -77.7992 94° East 483 556 24,800 -610 Descending New York Center
Fri 12:50:36 PM 40.3164 -77.6311 99° East 477 549 23,800 -950 Descending New York Center
Fri 12:51:36 PM 40.2964 -77.4742 99° East 464 534 22,900 -942 Descending New York Center
Fri 12:52:37 PM 40.2783 -77.3117 98° East 453 521 21,900 -942 Descending New York Center
Fri 12:53:37 PM 40.2608 -77.1742 99° East 438 504 21,000 -942 Descending New York Center
Fri 12:54:38 PM 40.2417 -77.0228 99° East 428 493 20,000 -1,008 Descending New York Center
Fri 12:55:36 PM 40.2247 -76.8717 98° East 423 487 19,000 -504 Descending New York Center
Fri 12:56:37 PM 40.2058 -76.7122 99° East 408 470 19,000 -689 Level New York Center
Fri 12:57:38 PM 40.1881 -76.5639 99° East 408 470 17,600 -1,686 Descending New York Center
Fri 12:58:38 PM 40.1714 -76.4347 100° East 403 464 15,600 -2,237 Descending New York Center
Fri 12:59:36 PM 40.1547 -76.3031 99° East 380 437 13,200 -2,622 Descending New York Center
Fri 01:00:37 PM 40.1381 -76.1661 99° East 363 418 10,400 -2,281 Descending New York Center
Fri 01:01:37 PM 40.1225 -76.0508 100° East 331 381 8,600 -1,815 Descending New York Center
Fri 01:02:36 PM 40.1083 -75.9439 100° East 305 351 6,800 -2,017 Descending New York Center
Fri 01:03:36 PM 40.0958 -75.8533 100° East 289 333 4,600 -1,388 Descending New York Center
Fri 01:04:37 PM 40.0814 -75.7464 100° East 277 319 4,000 -689 Descending New York Center
Fri 01:05:38 PM 40.0789 -75.6594 92° East 277 319 3,200 -454 Descending New York Center
Fri 01:06:36 PM 40.0161 -75.6169 153° Southeast 214 246 3,100 -149 Descending New York Center
Fri 01:07:39 PM 39.9603 -75.6025 169° South 214 246 2,900 -300 Descending New York Center
Fri 01:08:36 PM 39.9450 -75.6692 253° West 133 153 2,500 -186 Descending New York Center
Fri 01:09:48 PM 39.9225 -75.7133 236° Southwest 133 153 2,500 2,500 Level New York Center
Fri 01:10:48 PM 39.9000 -75.7525 233° Southwest 133 153 8,000 2,750 Climbing New York Center
Fri 01:11:48 PM 39.8775 -75.7914 233° Southwest 133 153 8,000  Level New York Center
Fri 01:12:48 PM 39.8550 -75.8303 233° Southwest 133 153 8,000  Level New York Center
Fri 01:14:50 PM 39.8550 -75.8303 90° East 133 153 8,000  Level New York Center
Fri 01:17:00 PM 39.9667 -75.8500 348° North  Level FlightAware Approximate
Fri 01:24:00 PM 39.9790 -75.8655 348° North  Level Estimated
Fri 01:25:00 PM 39.9790 -75.8655 348° North  Level Estimated
Fri 01:26:00 PM 39.9790 -75.8655 348° North  Level Estimated
Fri 01:27:00 PM 39.9790 -75.8655 348° North  Level Estimated

Login

Don't have an account? Register now (free) for customized features, flight alerts, and more!